Terminal Aerodrome Forecast
Issued by NWS Jackson, KY

Home | Current Version | Previous Version | Text Only | Print | Product List | Glossary On
Versions: 1 2 3 4 5 6 7 8 9 10 11 12 13 14
793
FTUS43 KJKL 030536
TAFLOZ
TAF
KLOZ 030536Z 0306/0406 VRB03KT P6SM -SHRA OVC022
     FM030800 VRB03KT P6SM VCSH OVC028
     FM031100 30004KT P6SM OVC035=

USA.gov is the U.S. government's official web portal to all federal, state and local government web resources and services.